sensor_id;sensor_type;location;lat;lon;timestamp;P1;durP1;ratioP1;P2;durP2;ratioP2
33152;SDS011;19509;43.862;26.176;2022-08-01T00:00:11;3.80;;;2.63;;
33152;SDS011;19509;43.862;26.176;2022-08-01T00:02:37;7.63;;;2.50;;
33152;SDS011;19509;43.862;26.176;2022-08-01T00:05:03;3.33;;;2.60;;
33152;SDS011;19509;43.862;26.176;2022-08-01T00:07:35;2.60;;;2.27;;
33152;SDS011;19509;43.862;26.176;2022-08-01T00:10:06;3.10;;;2.40;;
33152;SDS011;19509;43.862;26.176;2022-08-01T00:12:33;4.80;;;2.30;;
33152;SDS011;19509;43.862;26.176;2022-08-01T00:14:59;8.37;;;2.50;;
33152;SDS011;19509;43.862;26.176;2022-08-01T00:17:25;6.00;;;2.50;;
33152;SDS011;19509;43.862;26.176;2022-08-01T00:19:51;3.00;;;2.40;;
33152;SDS011;19509;43.862;26.176;2022-08-01T00:22:16;3.80;;;2.10;;
33152;SDS011;19509;43.862;26.176;2022-08-01T00:24:42;6.53;;;2.27;;
33152;SDS011;19509;43.862;26.176;2022-08-01T00:27:07;3.53;;;2.40;;
33152;SDS011;19509;43.862;26.176;2022-08-01T00:29:33;6.00;;;2.27;;
33152;SDS011;19509;43.862;26.176;2022-08-01T00:31:58;4.00;;;2.30;;
33152;SDS011;19509;43.862;26.176;2022-08-01T00:34:24;5.47;;;2.30;;
33152;SDS011;19509;43.862;26.176;2022-08-01T00:36:49;3.53;;;2.40;;
33152;SDS011;19509;43.862;26.176;2022-08-01T00:39:15;4.07;;;2.57;;
33152;SDS011;19509;43.862;26.176;2022-08-01T00:41:40;4.40;;;2.40;;
33152;SDS011;19509;43.862;26.176;2022-08-01T00:44:06;3.53;;;2.40;;
33152;SDS011;19509;43.862;26.176;2022-08-01T00:46:32;3.07;;;2.37;;
33152;SDS011;19509;43.862;26.176;2022-08-01T00:48:57;5.47;;;2.40;;
33152;SDS011;19509;43.862;26.176;2022-08-01T00:51:24;3.57;;;2.30;;
33152;SDS011;19509;43.862;26.176;2022-08-01T00:53:51;2.97;;;2.03;;
33152;SDS011;19509;43.862;26.176;2022-08-01T00:56:17;6.00;;;2.40;;
33152;SDS011;19509;43.862;26.176;2022-08-01T00:58:43;6.27;;;2.23;;
33152;SDS011;19509;43.862;26.176;2022-08-01T01:01:09;6.90;;;2.30;;
33152;SDS011;19509;43.862;26.176;2022-08-01T01:03:35;4.67;;;2.53;;
33152;SDS011;19509;43.862;26.176;2022-08-01T01:08:51;4.30;;;2.60;;
33152;SDS011;19509;43.862;26.176;2022-08-01T01:11:28;5.40;;;2.27;;
33152;SDS011;19509;43.862;26.176;2022-08-01T01:13:59;4.70;;;2.40;;
33152;SDS011;19509;43.862;26.176;2022-08-01T01:16:29;3.57;;;2.00;;
33152;SDS011;19509;43.862;26.176;2022-08-01T01:19:02;3.80;;;2.40;;
33152;SDS011;19509;43.862;26.176;2022-08-01T01:22:17;4.80;;;2.10;;
33152;SDS011;19509;43.862;26.176;2022-08-01T01:28:04;6.83;;;2.20;;
33152;SDS011;19509;43.862;26.176;2022-08-01T01:30:28;4.13;;;2.80;;
33152;SDS011;19509;43.862;26.176;2022-08-01T01:32:56;8.10;;;2.37;;
33152;SDS011;19509;43.862;26.176;2022-08-01T01:35:27;5.03;;;2.30;;
33152;SDS011;19509;43.862;26.176;2022-08-01T01:37:58;3.43;;;2.30;;
33152;SDS011;19509;43.862;26.176;2022-08-01T01:40:28;6.03;;;2.30;;
33152;SDS011;19509;43.862;26.176;2022-08-01T01:42:55;11.73;;;2.20;;
33152;SDS011;19509;43.862;26.176;2022-08-01T01:45:23;10.07;;;2.27;;
33152;SDS011;19509;43.862;26.176;2022-08-01T01:47:50;6.57;;;2.30;;
33152;SDS011;19509;43.862;26.176;2022-08-01T01:50:19;4.27;;;2.00;;
33152;SDS011;19509;43.862;26.176;2022-08-01T01:52:45;9.10;;;2.50;;
33152;SDS011;19509;43.862;26.176;2022-08-01T01:55:12;3.10;;;2.20;;
33152;SDS011;19509;43.862;26.176;2022-08-01T01:57:40;3.70;;;2.20;;
33152;SDS011;19509;43.862;26.176;2022-08-01T02:00:08;7.00;;;2.43;;
33152;SDS011;19509;43.862;26.176;2022-08-01T02:02:36;7.63;;;2.50;;
33152;SDS011;19509;43.862;26.176;2022-08-01T02:05:02;6.30;;;2.10;;
33152;SDS011;19509;43.862;26.176;2022-08-01T02:07:29;4.47;;;2.53;;
33152;SDS011;19509;43.862;26.176;2022-08-01T02:09:55;5.30;;;2.20;;
33152;SDS011;19509;43.862;26.176;2022-08-01T02:12:23;5.70;;;2.30;;
33152;SDS011;19509;43.862;26.176;2022-08-01T02:14:50;7.17;;;2.07;;
33152;SDS011;19509;43.862;26.176;2022-08-01T02:17:19;11.73;;;2.57;;
33152;SDS011;19509;43.862;26.176;2022-08-01T02:19:46;7.90;;;2.20;;
33152;SDS011;19509;43.862;26.176;2022-08-01T02:22:17;3.73;;;2.37;;
33152;SDS011;19509;43.862;26.176;2022-08-01T02:24:59;3.73;;;2.17;;
33152;SDS011;19509;43.862;26.176;2022-08-01T02:27:42;7.10;;;2.20;;
33152;SDS011;19509;43.862;26.176;2022-08-01T02:30:13;8.40;;;2.70;;
33152;SDS011;19509;43.862;26.176;2022-08-01T02:32:41;4.50;;;2.20;;
33152;SDS011;19509;43.862;26.176;2022-08-01T02:35:13;4.80;;;2.43;;
33152;SDS011;19509;43.862;26.176;2022-08-01T02:37:44;3.07;;;2.10;;
33152;SDS011;19509;43.862;26.176;2022-08-01T02:40:13;4.30;;;2.57;;
33152;SDS011;19509;43.862;26.176;2022-08-01T02:42:43;7.70;;;2.37;;
33152;SDS011;19509;43.862;26.176;2022-08-01T02:45:12;4.30;;;2.30;;
33152;SDS011;19509;43.862;26.176;2022-08-01T02:47:38;4.20;;;2.30;;
33152;SDS011;19509;43.862;26.176;2022-08-01T02:50:07;4.27;;;2.30;;
33152;SDS011;19509;43.862;26.176;2022-08-01T02:52:36;6.37;;;2.20;;
33152;SDS011;19509;43.862;26.176;2022-08-01T02:55:04;5.70;;;2.30;;
33152;SDS011;19509;43.862;26.176;2022-08-01T02:57:31;10.90;;;2.50;;
33152;SDS011;19509;43.862;26.176;2022-08-01T02:59:59;4.97;;;2.40;;
33152;SDS011;19509;43.862;26.176;2022-08-01T03:02:26;8.10;;;2.37;;
33152;SDS011;19509;43.862;26.176;2022-08-01T03:04:52;4.33;;;2.57;;
33152;SDS011;19509;43.862;26.176;2022-08-01T03:07:20;5.53;;;2.60;;
33152;SDS011;19509;43.862;26.176;2022-08-01T03:09:49;6.43;;;2.80;;
33152;SDS011;19509;43.862;26.176;2022-08-01T03:12:17;4.60;;;2.40;;
33152;SDS011;19509;43.862;26.176;2022-08-01T03:14:45;5.37;;;2.30;;
33152;SDS011;19509;43.862;26.176;2022-08-01T03:17:14;6.00;;;2.57;;
33152;SDS011;19509;43.862;26.176;2022-08-01T03:19:43;5.47;;;2.57;;
33152;SDS011;19509;43.862;26.176;2022-08-01T03:22:11;3.60;;;2.70;;
33152;SDS011;19509;43.862;26.176;2022-08-01T03:24:39;8.20;;;2.63;;
33152;SDS011;19509;43.862;26.176;2022-08-01T03:27:06;8.63;;;3.03;;
33152;SDS011;19509;43.862;26.176;2022-08-01T03:29:33;3.90;;;2.40;;
33152;SDS011;19509;43.862;26.176;2022-08-01T03:32:00;5.27;;;2.70;;
33152;SDS011;19509;43.862;26.176;2022-08-01T03:34:27;3.93;;;2.50;;
33152;SDS011;19509;43.862;26.176;2022-08-01T03:37:36;3.37;;;2.80;;
33152;SDS011;19509;43.862;26.176;2022-08-01T03:39:50;7.20;;;2.70;;
33152;SDS011;19509;43.862;26.176;2022-08-01T03:42:23;4.43;;;2.70;;
33152;SDS011;19509;43.862;26.176;2022-08-01T03:45:02;4.37;;;2.70;;
33152;SDS011;19509;43.862;26.176;2022-08-01T03:47:31;5.27;;;2.93;;
33152;SDS011;19509;43.862;26.176;2022-08-01T03:50:02;3.60;;;2.50;;
33152;SDS011;19509;43.862;26.176;2022-08-01T03:52:30;3.40;;;2.53;;
33152;SDS011;19509;43.862;26.176;2022-08-01T03:54:58;7.23;;;3.40;;
33152;SDS011;19509;43.862;26.176;2022-08-01T03:57:27;5.60;;;2.70;;
33152;SDS011;19509;43.862;26.176;2022-08-01T03:59:55;4.57;;;2.70;;
33152;SDS011;19509;43.862;26.176;2022-08-01T04:02:22;4.10;;;2.80;;
33152;SDS011;19509;43.862;26.176;2022-08-01T04:04:48;3.50;;;3.20;;
33152;SDS011;19509;43.862;26.176;2022-08-01T04:07:24;5.40;;;2.67;;
33152;SDS011;19509;43.862;26.176;2022-08-01T04:09:53;5.33;;;3.17;;
33152;SDS011;19509;43.862;26.176;2022-08-01T04:12:19;6.33;;;2.97;;
33152;SDS011;19509;43.862;26.176;2022-08-01T04:14:44;3.43;;;2.90;;
33152;SDS011;19509;43.862;26.176;2022-08-01T04:17:10;7.20;;;3.17;;
33152;SDS011;19509;43.862;26.176;2022-08-01T04:19:36;4.20;;;3.30;;
33152;SDS011;19509;43.862;26.176;2022-08-01T04:22:01;4.43;;;3.10;;
33152;SDS011;19509;43.862;26.176;2022-08-01T04:24:28;7.63;;;3.03;;
33152;SDS011;19509;43.862;26.176;2022-08-01T04:26:57;4.10;;;2.60;;
33152;SDS011;19509;43.862;26.176;2022-08-01T04:29:25;5.10;;;2.90;;
33152;SDS011;19509;43.862;26.176;2022-08-01T04:31:54;7.23;;;2.70;;
33152;SDS011;19509;43.862;26.176;2022-08-01T04:34:22;4.37;;;2.90;;
33152;SDS011;19509;43.862;26.176;2022-08-01T04:36:51;4.00;;;2.73;;
33152;SDS011;19509;43.862;26.176;2022-08-01T04:39:19;2.93;;;2.63;;
33152;SDS011;19509;43.862;26.176;2022-08-01T04:41:46;4.10;;;2.90;;
33152;SDS011;19509;43.862;26.176;2022-08-01T04:44:12;7.40;;;3.07;;
33152;SDS011;19509;43.862;26.176;2022-08-01T04:46:39;9.47;;;3.00;;
33152;SDS011;19509;43.862;26.176;2022-08-01T04:49:08;4.80;;;2.63;;
33152;SDS011;19509;43.862;26.176;2022-08-01T04:51:36;5.80;;;2.70;;
33152;SDS011;19509;43.862;26.176;2022-08-01T04:54:14;8.90;;;3.27;;
33152;SDS011;19509;43.862;26.176;2022-08-01T04:56:39;4.60;;;2.63;;
33152;SDS011;19509;43.862;26.176;2022-08-01T04:59:06;4.67;;;2.67;;
33152;SDS011;19509;43.862;26.176;2022-08-01T05:01:58;9.57;;;2.93;;
33152;SDS011;19509;43.862;26.176;2022-08-01T05:04:23;5.10;;;2.50;;
33152;SDS011;19509;43.862;26.176;2022-08-01T05:06:49;3.73;;;2.50;;
33152;SDS011;19509;43.862;26.176;2022-08-01T05:09:14;5.60;;;2.50;;
33152;SDS011;19509;43.862;26.176;2022-08-01T05:11:40;7.70;;;2.70;;
33152;SDS011;19509;43.862;26.176;2022-08-01T05:14:06;10.47;;;2.40;;
33152;SDS011;19509;43.862;26.176;2022-08-01T05:16:31;8.47;;;2.90;;
33152;SDS011;19509;43.862;26.176;2022-08-01T05:18:57;4.97;;;2.50;;
33152;SDS011;19509;43.862;26.176;2022-08-01T05:21:22;5.80;;;2.67;;
33152;SDS011;19509;43.862;26.176;2022-08-01T05:23:48;6.10;;;2.70;;
33152;SDS011;19509;43.862;26.176;2022-08-01T05:26:14;4.30;;;2.53;;
33152;SDS011;19509;43.862;26.176;2022-08-01T05:28:39;3.43;;;2.43;;
33152;SDS011;19509;43.862;26.176;2022-08-01T05:31:05;9.77;;;2.83;;
33152;SDS011;19509;43.862;26.176;2022-08-01T05:33:30;5.97;;;2.43;;
33152;SDS011;19509;43.862;26.176;2022-08-01T05:35:56;4.13;;;2.90;;
33152;SDS011;19509;43.862;26.176;2022-08-01T05:38:21;6.70;;;3.00;;
33152;SDS011;19509;43.862;26.176;2022-08-01T05:40:47;4.40;;;2.70;;
33152;SDS011;19509;43.862;26.176;2022-08-01T05:43:12;4.90;;;2.27;;
33152;SDS011;19509;43.862;26.176;2022-08-01T05:45:38;3.90;;;2.83;;
33152;SDS011;19509;43.862;26.176;2022-08-01T05:48:03;7.50;;;2.90;;
33152;SDS011;19509;43.862;26.176;2022-08-01T05:50:29;6.00;;;3.03;;
33152;SDS011;19509;43.862;26.176;2022-08-01T05:52:54;5.90;;;2.80;;
33152;SDS011;19509;43.862;26.176;2022-08-01T05:55:20;3.13;;;2.47;;
33152;SDS011;19509;43.862;26.176;2022-08-01T05:57:45;12.13;;;2.50;;
33152;SDS011;19509;43.862;26.176;2022-08-01T06:00:11;3.20;;;2.70;;
33152;SDS011;19509;43.862;26.176;2022-08-01T06:02:41;4.60;;;2.53;;
33152;SDS011;19509;43.862;26.176;2022-08-01T06:05:08;5.63;;;2.73;;
33152;SDS011;19509;43.862;26.176;2022-08-01T06:07:34;3.70;;;2.63;;
33152;SDS011;19509;43.862;26.176;2022-08-01T06:10:00;7.77;;;2.70;;
33152;SDS011;19509;43.862;26.176;2022-08-01T06:12:25;6.77;;;2.50;;
33152;SDS011;19509;43.862;26.176;2022-08-01T06:14:50;6.53;;;2.90;;
33152;SDS011;19509;43.862;26.176;2022-08-01T06:17:16;7.23;;;2.40;;
33152;SDS011;19509;43.862;26.176;2022-08-01T06:19:41;4.40;;;2.50;;
33152;SDS011;19509;43.862;26.176;2022-08-01T06:22:07;8.10;;;3.03;;
33152;SDS011;19509;43.862;26.176;2022-08-01T06:24:32;7.50;;;2.70;;
33152;SDS011;19509;43.862;26.176;2022-08-01T06:26:58;4.20;;;2.40;;
33152;SDS011;19509;43.862;26.176;2022-08-01T06:29:23;5.47;;;2.60;;
33152;SDS011;19509;43.862;26.176;2022-08-01T06:31:49;7.37;;;2.40;;
33152;SDS011;19509;43.862;26.176;2022-08-01T06:34:15;7.80;;;2.40;;
33152;SDS011;19509;43.862;26.176;2022-08-01T06:36:40;5.20;;;2.53;;
33152;SDS011;19509;43.862;26.176;2022-08-01T06:39:06;4.97;;;2.17;;
33152;SDS011;19509;43.862;26.176;2022-08-01T06:41:31;5.60;;;2.47;;
33152;SDS011;19509;43.862;26.176;2022-08-01T06:43:57;5.97;;;2.40;;
33152;SDS011;19509;43.862;26.176;2022-08-01T06:46:24;5.47;;;2.37;;
33152;SDS011;19509;43.862;26.176;2022-08-01T06:48:50;5.83;;;2.47;;
33152;SDS011;19509;43.862;26.176;2022-08-01T06:51:15;4.70;;;2.47;;
33152;SDS011;19509;43.862;26.176;2022-08-01T06:53:44;2.70;;;2.00;;
33152;SDS011;19509;43.862;26.176;2022-08-01T06:56:10;4.97;;;2.60;;
33152;SDS011;19509;43.862;26.176;2022-08-01T06:58:36;5.97;;;3.03;;
33152;SDS011;19509;43.862;26.176;2022-08-01T07:01:02;4.13;;;2.40;;
33152;SDS011;19509;43.862;26.176;2022-08-01T07:03:31;3.47;;;2.40;;
33152;SDS011;19509;43.862;26.176;2022-08-01T07:05:57;7.60;;;2.80;;
33152;SDS011;19509;43.862;26.176;2022-08-01T07:08:22;8.93;;;2.60;;
33152;SDS011;19509;43.862;26.176;2022-08-01T07:10:48;7.63;;;2.47;;
33152;SDS011;19509;43.862;26.176;2022-08-01T07:13:13;7.53;;;2.60;;
33152;SDS011;19509;43.862;26.176;2022-08-01T07:15:41;6.27;;;2.70;;
33152;SDS011;19509;43.862;26.176;2022-08-01T07:18:06;3.87;;;2.63;;
33152;SDS011;19509;43.862;26.176;2022-08-01T07:20:32;4.40;;;2.27;;
33152;SDS011;19509;43.862;26.176;2022-08-01T07:22:57;3.23;;;2.40;;
33152;SDS011;19509;43.862;26.176;2022-08-01T07:25:23;8.13;;;2.13;;
33152;SDS011;19509;43.862;26.176;2022-08-01T07:27:48;3.60;;;2.23;;
33152;SDS011;19509;43.862;26.176;2022-08-01T07:30:14;3.77;;;2.40;;
33152;SDS011;19509;43.862;26.176;2022-08-01T07:32:39;9.37;;;2.70;;
33152;SDS011;19509;43.862;26.176;2022-08-01T07:35:05;12.37;;;2.60;;
33152;SDS011;19509;43.862;26.176;2022-08-01T07:37:31;5.80;;;2.67;;
33152;SDS011;19509;43.862;26.176;2022-08-01T07:39:56;6.83;;;2.93;;
33152;SDS011;19509;43.862;26.176;2022-08-01T07:42:22;5.37;;;2.53;;
33152;SDS011;19509;43.862;26.176;2022-08-01T07:44:47;9.53;;;2.50;;
33152;SDS011;19509;43.862;26.176;2022-08-01T07:47:13;5.00;;;2.40;;
33152;SDS011;19509;43.862;26.176;2022-08-01T07:49:39;7.33;;;2.80;;
33152;SDS011;19509;43.862;26.176;2022-08-01T07:52:04;4.87;;;2.60;;
33152;SDS011;19509;43.862;26.176;2022-08-01T07:54:33;8.30;;;2.87;;
33152;SDS011;19509;43.862;26.176;2022-08-01T07:56:58;7.20;;;3.00;;
33152;SDS011;19509;43.862;26.176;2022-08-01T07:59:24;3.77;;;3.17;;
33152;SDS011;19509;43.862;26.176;2022-08-01T08:01:50;8.20;;;3.00;;
33152;SDS011;19509;43.862;26.176;2022-08-01T08:04:16;7.53;;;3.60;;
33152;SDS011;19509;43.862;26.176;2022-08-01T08:06:42;5.10;;;3.30;;
33152;SDS011;19509;43.862;26.176;2022-08-01T08:09:09;5.17;;;3.63;;
33152;SDS011;19509;43.862;26.176;2022-08-01T08:11:35;4.20;;;3.27;;
33152;SDS011;19509;43.862;26.176;2022-08-01T08:14:00;5.27;;;3.17;;
33152;SDS011;19509;43.862;26.176;2022-08-01T08:16:26;4.47;;;3.20;;
33152;SDS011;19509;43.862;26.176;2022-08-01T08:18:52;5.00;;;4.10;;
33152;SDS011;19509;43.862;26.176;2022-08-01T08:21:17;4.87;;;3.17;;
33152;SDS011;19509;43.862;26.176;2022-08-01T08:23:43;4.70;;;3.43;;
33152;SDS011;19509;43.862;26.176;2022-08-01T08:26:40;7.87;;;4.10;;
33152;SDS011;19509;43.862;26.176;2022-08-01T08:29:06;7.30;;;3.77;;
33152;SDS011;19509;43.862;26.176;2022-08-01T08:31:31;6.77;;;3.27;;
33152;SDS011;19509;43.862;26.176;2022-08-01T08:33:57;5.07;;;3.13;;
33152;SDS011;19509;43.862;26.176;2022-08-01T08:36:23;5.60;;;2.80;;
33152;SDS011;19509;43.862;26.176;2022-08-01T08:38:49;4.00;;;3.40;;
33152;SDS011;19509;43.862;26.176;2022-08-01T08:41:14;5.00;;;3.60;;
33152;SDS011;19509;43.862;26.176;2022-08-01T08:43:40;4.37;;;3.10;;
33152;SDS011;19509;43.862;26.176;2022-08-01T08:46:06;6.20;;;3.70;;
33152;SDS011;19509;43.862;26.176;2022-08-01T08:48:33;3.80;;;3.10;;
33152;SDS011;19509;43.862;26.176;2022-08-01T08:51:00;4.27;;;3.53;;
33152;SDS011;19509;43.862;26.176;2022-08-01T08:53:26;5.27;;;3.00;;
33152;SDS011;19509;43.862;26.176;2022-08-01T08:55:52;4.67;;;3.43;;
33152;SDS011;19509;43.862;26.176;2022-08-01T08:58:21;5.23;;;3.57;;
33152;SDS011;19509;43.862;26.176;2022-08-01T09:00:49;3.70;;;3.30;;
33152;SDS011;19509;43.862;26.176;2022-08-01T09:03:15;7.50;;;3.50;;
33152;SDS011;19509;43.862;26.176;2022-08-01T09:05:41;7.73;;;3.53;;
33152;SDS011;19509;43.862;26.176;2022-08-01T09:08:07;5.10;;;3.50;;
33152;SDS011;19509;43.862;26.176;2022-08-01T09:10:33;6.00;;;3.83;;
33152;SDS011;19509;43.862;26.176;2022-08-01T09:13:02;6.07;;;3.80;;
33152;SDS011;19509;43.862;26.176;2022-08-01T09:15:47;11.60;;;3.87;;
33152;SDS011;19509;43.862;26.176;2022-08-01T09:23:35;5.73;;;3.13;;
33152;SDS011;19509;43.862;26.176;2022-08-01T09:26:07;3.50;;;2.37;;
33152;SDS011;19509;43.862;26.176;2022-08-01T09:28:37;5.40;;;2.40;;
33152;SDS011;19509;43.862;26.176;2022-08-01T09:31:06;3.63;;;2.50;;
33152;SDS011;19509;43.862;26.176;2022-08-01T09:36:26;6.47;;;3.00;;
33152;SDS011;19509;43.862;26.176;2022-08-01T09:39:11;3.53;;;2.90;;
33152;SDS011;19509;43.862;26.176;2022-08-01T09:41:38;4.03;;;2.40;;
33152;SDS011;19509;43.862;26.176;2022-08-01T09:44:04;4.40;;;3.00;;
33152;SDS011;19509;43.862;26.176;2022-08-01T09:46:30;6.53;;;2.93;;
33152;SDS011;19509;43.862;26.176;2022-08-01T09:51:29;3.70;;;3.07;;
33152;SDS011;19509;43.862;26.176;2022-08-01T09:53:56;3.67;;;3.00;;
33152;SDS011;19509;43.862;26.176;2022-08-01T09:56:22;3.90;;;2.70;;
33152;SDS011;19509;43.862;26.176;2022-08-01T10:01:21;5.67;;;2.97;;
33152;SDS011;19509;43.862;26.176;2022-08-01T10:03:47;3.60;;;2.87;;
33152;SDS011;19509;43.862;26.176;2022-08-01T10:06:29;4.23;;;3.17;;
33152;SDS011;19509;43.862;26.176;2022-08-01T10:08:55;4.93;;;3.23;;
33152;SDS011;19509;43.862;26.176;2022-08-01T10:11:20;3.63;;;3.10;;
33152;SDS011;19509;43.862;26.176;2022-08-01T10:13:47;6.17;;;3.20;;
33152;SDS011;19509;43.862;26.176;2022-08-01T10:16:13;5.17;;;3.10;;
33152;SDS011;19509;43.862;26.176;2022-08-01T10:18:39;3.87;;;3.30;;
33152;SDS011;19509;43.862;26.176;2022-08-01T10:21:06;4.10;;;3.43;;
33152;SDS011;19509;43.862;26.176;2022-08-01T10:23:35;3.47;;;3.17;;
33152;SDS011;19509;43.862;26.176;2022-08-01T10:26:02;3.97;;;3.47;;
33152;SDS011;19509;43.862;26.176;2022-08-01T10:28:31;4.27;;;3.43;;
33152;SDS011;19509;43.862;26.176;2022-08-01T10:30:59;3.77;;;3.43;;
33152;SDS011;19509;43.862;26.176;2022-08-01T10:33:26;7.10;;;3.23;;
33152;SDS011;19509;43.862;26.176;2022-08-01T10:35:54;3.30;;;3.00;;
33152;SDS011;19509;43.862;26.176;2022-08-01T10:38:20;6.00;;;3.57;;
33152;SDS011;19509;43.862;26.176;2022-08-01T10:40:45;4.70;;;3.00;;
33152;SDS011;19509;43.862;26.176;2022-08-01T10:43:11;4.70;;;3.10;;
33152;SDS011;19509;43.862;26.176;2022-08-01T10:45:39;3.80;;;3.10;;
33152;SDS011;19509;43.862;26.176;2022-08-01T10:48:20;3.83;;;3.10;;
33152;SDS011;19509;43.862;26.176;2022-08-01T10:50:52;3.93;;;2.70;;
33152;SDS011;19509;43.862;26.176;2022-08-01T10:53:23;3.30;;;2.87;;
33152;SDS011;19509;43.862;26.176;2022-08-01T10:55:51;3.30;;;2.73;;
33152;SDS011;19509;43.862;26.176;2022-08-01T10:58:26;3.20;;;2.90;;
33152;SDS011;19509;43.862;26.176;2022-08-01T11:01:14;4.73;;;3.03;;
33152;SDS011;19509;43.862;26.176;2022-08-01T11:03:40;4.70;;;2.87;;
33152;SDS011;19509;43.862;26.176;2022-08-01T11:06:48;6.70;;;2.90;;
33152;SDS011;19509;43.862;26.176;2022-08-01T11:09:30;4.37;;;3.00;;
33152;SDS011;19509;43.862;26.176;2022-08-01T11:14:34;8.03;;;3.07;;
33152;SDS011;19509;43.862;26.176;2022-08-01T11:17:41;4.00;;;3.00;;
33152;SDS011;19509;43.862;26.176;2022-08-01T11:25:26;7.13;;;2.97;;
33152;SDS011;19509;43.862;26.176;2022-08-01T11:30:48;5.10;;;3.00;;
33152;SDS011;19509;43.862;26.176;2022-08-01T11:33:14;5.07;;;2.90;;
33152;SDS011;19509;43.862;26.176;2022-08-01T11:41:26;8.63;;;3.10;;
33152;SDS011;19509;43.862;26.176;2022-08-01T11:43:56;4.70;;;3.13;;
33152;SDS011;19509;43.862;26.176;2022-08-01T11:46:45;3.60;;;3.13;;
33152;SDS011;19509;43.862;26.176;2022-08-01T11:54:36;3.70;;;3.40;;
33152;SDS011;19509;43.862;26.176;2022-08-01T11:57:04;7.53;;;4.17;;
33152;SDS011;19509;43.862;26.176;2022-08-01T11:59:39;5.00;;;4.10;;
33152;SDS011;19509;43.862;26.176;2022-08-01T12:02:20;7.73;;;4.10;;
33152;SDS011;19509;43.862;26.176;2022-08-01T12:04:48;6.10;;;3.53;;
33152;SDS011;19509;43.862;26.176;2022-08-01T12:07:17;8.30;;;3.93;;
33152;SDS011;19509;43.862;26.176;2022-08-01T12:09:43;5.80;;;3.67;;
33152;SDS011;19509;43.862;26.176;2022-08-01T12:12:09;4.50;;;3.87;;
33152;SDS011;19509;43.862;26.176;2022-08-01T12:14:35;5.60;;;4.17;;
33152;SDS011;19509;43.862;26.176;2022-08-01T12:17:01;4.80;;;3.77;;
33152;SDS011;19509;43.862;26.176;2022-08-01T12:19:27;4.50;;;3.50;;
33152;SDS011;19509;43.862;26.176;2022-08-01T12:22:08;6.87;;;4.10;;
33152;SDS011;19509;43.862;26.176;2022-08-01T12:24:36;5.23;;;3.97;;
33152;SDS011;19509;43.862;26.176;2022-08-01T12:27:03;4.33;;;3.87;;
33152;SDS011;19509;43.862;26.176;2022-08-01T12:29:40;9.37;;;4.40;;
33152;SDS011;19509;43.862;26.176;2022-08-01T12:32:21;8.10;;;4.47;;
33152;SDS011;19509;43.862;26.176;2022-08-01T12:34:50;4.73;;;4.10;;
33152;SDS011;19509;43.862;26.176;2022-08-01T12:37:17;6.03;;;4.10;;
33152;SDS011;19509;43.862;26.176;2022-08-01T12:39:43;6.50;;;4.23;;
33152;SDS011;19509;43.862;26.176;2022-08-01T12:42:09;5.57;;;3.83;;
33152;SDS011;19509;43.862;26.176;2022-08-01T12:44:36;3.90;;;3.60;;
33152;SDS011;19509;43.862;26.176;2022-08-01T12:47:03;6.20;;;3.60;;
33152;SDS011;19509;43.862;26.176;2022-08-01T12:49:34;5.90;;;3.40;;
33152;SDS011;19509;43.862;26.176;2022-08-01T12:52:02;8.40;;;3.93;;
33152;SDS011;19509;43.862;26.176;2022-08-01T12:54:28;5.03;;;3.80;;
33152;SDS011;19509;43.862;26.176;2022-08-01T12:56:53;4.13;;;3.73;;
33152;SDS011;19509;43.862;26.176;2022-08-01T12:59:20;8.00;;;3.60;;
33152;SDS011;19509;43.862;26.176;2022-08-01T13:01:55;3.90;;;3.50;;
33152;SDS011;19509;43.862;26.176;2022-08-01T13:04:21;5.50;;;3.63;;
33152;SDS011;19509;43.862;26.176;2022-08-01T13:06:48;3.33;;;3.03;;
33152;SDS011;19509;43.862;26.176;2022-08-01T13:09:18;6.47;;;3.70;;
33152;SDS011;19509;43.862;26.176;2022-08-01T13:11:43;5.53;;;3.70;;
33152;SDS011;19509;43.862;26.176;2022-08-01T13:14:10;4.27;;;3.50;;
33152;SDS011;19509;43.862;26.176;2022-08-01T13:16:52;4.40;;;4.00;;
33152;SDS011;19509;43.862;26.176;2022-08-01T13:19:17;4.80;;;3.60;;
33152;SDS011;19509;43.862;26.176;2022-08-01T13:21:53;4.20;;;3.80;;
33152;SDS011;19509;43.862;26.176;2022-08-01T13:24:26;3.97;;;3.63;;
33152;SDS011;19509;43.862;26.176;2022-08-01T13:26:56;4.83;;;3.70;;
33152;SDS011;19509;43.862;26.176;2022-08-01T13:29:34;4.53;;;3.50;;
33152;SDS011;19509;43.862;26.176;2022-08-01T13:34:38;4.63;;;3.43;;
33152;SDS011;19509;43.862;26.176;2022-08-01T13:37:04;4.80;;;3.47;;
33152;SDS011;19509;43.862;26.176;2022-08-01T13:39:30;4.40;;;3.40;;
33152;SDS011;19509;43.862;26.176;2022-08-01T13:42:05;4.63;;;3.80;;
33152;SDS011;19509;43.862;26.176;2022-08-01T13:44:34;6.90;;;3.57;;
33152;SDS011;19509;43.862;26.176;2022-08-01T13:47:01;5.67;;;3.93;;
33152;SDS011;19509;43.862;26.176;2022-08-01T13:49:27;5.10;;;3.73;;
33152;SDS011;19509;43.862;26.176;2022-08-01T13:51:52;4.23;;;3.50;;
33152;SDS011;19509;43.862;26.176;2022-08-01T13:54:18;7.53;;;3.77;;
33152;SDS011;19509;43.862;26.176;2022-08-01T13:56:44;3.33;;;3.03;;
33152;SDS011;19509;43.862;26.176;2022-08-01T13:59:09;5.47;;;3.30;;
33152;SDS011;19509;43.862;26.176;2022-08-01T14:01:35;8.40;;;3.87;;
33152;SDS011;19509;43.862;26.176;2022-08-01T14:04:01;4.27;;;3.50;;
33152;SDS011;19509;43.862;26.176;2022-08-01T14:06:27;2.83;;;2.50;;
33152;SDS011;19509;43.862;26.176;2022-08-01T14:08:53;5.70;;;2.80;;
33152;SDS011;19509;43.862;26.176;2022-08-01T14:11:18;5.50;;;2.40;;
33152;SDS011;19509;43.862;26.176;2022-08-01T14:13:44;5.17;;;3.20;;
33152;SDS011;19509;43.862;26.176;2022-08-01T14:16:10;3.87;;;3.00;;
33152;SDS011;19509;43.862;26.176;2022-08-01T14:18:36;7.67;;;2.90;;
33152;SDS011;19509;43.862;26.176;2022-08-01T14:21:01;7.73;;;3.20;;
33152;SDS011;19509;43.862;26.176;2022-08-01T14:23:27;9.90;;;3.33;;
33152;SDS011;19509;43.862;26.176;2022-08-01T14:25:52;5.23;;;3.10;;
33152;SDS011;19509;43.862;26.176;2022-08-01T14:28:18;4.77;;;3.30;;
33152;SDS011;19509;43.862;26.176;2022-08-01T14:30:44;3.80;;;2.83;;
33152;SDS011;19509;43.862;26.176;2022-08-01T14:33:10;5.17;;;3.37;;
33152;SDS011;19509;43.862;26.176;2022-08-01T14:35:36;4.50;;;2.83;;
33152;SDS011;19509;43.862;26.176;2022-08-01T14:38:01;3.43;;;2.80;;
33152;SDS011;19509;43.862;26.176;2022-08-01T14:40:27;4.87;;;2.90;;
33152;SDS011;19509;43.862;26.176;2022-08-01T14:42:53;4.30;;;2.70;;
33152;SDS011;19509;43.862;26.176;2022-08-01T14:45:19;4.60;;;2.60;;
33152;SDS011;19509;43.862;26.176;2022-08-01T14:47:45;3.10;;;2.63;;
33152;SDS011;19509;43.862;26.176;2022-08-01T14:50:12;3.80;;;2.77;;
33152;SDS011;19509;43.862;26.176;2022-08-01T14:52:39;3.33;;;2.80;;
33152;SDS011;19509;43.862;26.176;2022-08-01T14:55:06;3.10;;;2.70;;
33152;SDS011;19509;43.862;26.176;2022-08-01T14:57:33;3.83;;;2.80;;
33152;SDS011;19509;43.862;26.176;2022-08-01T14:59:59;5.40;;;2.57;;
33152;SDS011;19509;43.862;26.176;2022-08-01T15:02:25;3.13;;;2.53;;
33152;SDS011;19509;43.862;26.176;2022-08-01T15:04:51;4.20;;;3.07;;
33152;SDS011;19509;43.862;26.176;2022-08-01T15:07:17;3.77;;;2.83;;
33152;SDS011;19509;43.862;26.176;2022-08-01T15:09:43;6.93;;;2.90;;
33152;SDS011;19509;43.862;26.176;2022-08-01T15:12:10;3.97;;;2.80;;
33152;SDS011;19509;43.862;26.176;2022-08-01T15:14:36;6.60;;;2.70;;
33152;SDS011;19509;43.862;26.176;2022-08-01T15:17:22;7.20;;;2.70;;
33152;SDS011;19509;43.862;26.176;2022-08-01T15:19:54;7.60;;;3.17;;
33152;SDS011;19509;43.862;26.176;2022-08-01T15:22:21;2.97;;;2.40;;